KLAS

Mc Carran International Airport

Las Vegas, Nevada, USA
METAR KLAS 151256Z 21006KT 10SM CLR 06/M08 A3027 RMK AO2 SLP248 T00611083
Observed Flight Rules
Dec-15 @ 12:56 UTC (59 minutes ago) Visual Flight Rules
Wind Visibility Clouds
210° at 6 knots 10 miles
  • Clear skies
Temperatures Readings
Current 6°C / 43°F
Dewpoint -8°C / 18°F
Humidity 36%
Altimeter 30.27" Hg
Pressure 1024.8 hPa
Elevation 636
METAR KLAS 151256Z 21006KT 10SM CLR 06/M08 A3027 RMK AO2 SLP248 T00611083
Observed Flight Rules
Dec-15 @ 12:56 UTC
(59 minutes ago)
VFR
Wind Visibility
210° at 6 knots 10 miles
Clouds
  • Clear skies
Temperature Dewpoint
6°C / 43°F -8°C / 18°F
Humidity Altimeter Pressure
36% 30.27" Hg 1024.8 hPa